Time;durP1;ratioP1;P1;durP2;ratioP2;P2;SDS_P1;SDS_P2;PMS_P1;PMS_P2;Temp;Humidity;BMP_temperature;BMP_pressure;BME280_temperature;BME280_humidity;BME280_pressure;Samples;Min_cycle;Max_cycle;Signal;HPM_P1;HPM_P2
2023/07/14 00:00:16;;;;;;;19.00;10.50;;;25.60;80.70;;;26.28;55.11;94905.31;4964539;28;20487;-59
2023/07/14 00:02:45;;;;;;;16.13;9.80;;;25.60;81.20;;;26.24;55.31;94909.53;4961234;28;20532;-68
2023/07/14 00:05:17;;;;;;;19.93;10.03;;;25.60;81.70;;;26.20;55.56;94909.19;4963916;28;20551;-67
2023/07/14 00:07:46;;;;;;;20.73;11.23;;;25.50;81.90;;;26.17;55.60;94908.88;4963771;28;20455;-59
2023/07/14 00:10:18;;;;;;;21.70;10.43;;;25.50;82.40;;;26.14;56.31;94904.75;4962540;28;20477;-66
2023/07/14 00:12:45;;;;;;;16.83;9.10;;;25.50;83.00;;;26.10;55.95;94900.88;4965340;28;20462;-58
2023/07/14 00:15:12;;;;;;;17.10;8.70;;;25.40;82.50;;;26.05;56.20;94898.09;4963319;28;20498;-59
2023/07/14 00:17:40;;;;;;;19.90;9.50;;;25.40;82.60;;;26.01;56.30;94886.13;4958209;28;20454;-67
2023/07/14 00:20:23;;;;;;;11.67;9.43;;;25.40;82.80;;;25.96;56.79;94894.88;4963656;28;20475;-68
2023/07/14 00:22:51;;;;;;;11.23;9.70;;;25.30;83.10;;;25.92;56.33;94883.75;4962445;28;20447;-66
2023/07/14 00:25:22;;;;;;;16.07;9.57;;;25.20;83.20;;;25.92;56.66;94888.34;4961215;28;20561;-58
2023/07/14 00:27:49;;;;;;;14.47;9.37;;;25.20;84.70;;;25.89;57.15;94878.84;4961570;28;20454;-59
2023/07/14 00:30:19;;;;;;;14.60;8.80;;;25.20;84.10;;;25.87;57.05;94877.44;4962983;28;20490;-66
2023/07/14 00:32:47;;;;;;;12.80;9.83;;;25.20;84.20;;;25.85;57.05;94880.38;4960008;28;20483;-66
2023/07/14 00:35:25;;;;;;;20.20;10.27;;;25.20;84.70;;;25.83;57.48;94908.63;4959477;28;20510;-58
2023/07/14 00:37:53;;;;;;;15.77;8.93;;;25.20;84.80;;;25.82;56.96;94921.25;4956843;28;20455;-59
2023/07/14 00:40:23;;;;;;;12.97;8.93;;;25.10;85.80;;;25.81;57.18;94926.88;4961403;28;20478;-60
2023/07/14 00:42:55;;;;;;;18.57;9.43;;;25.10;85.10;;;25.80;57.30;94936.03;4962678;28;20451;-58
2023/07/14 00:45:28;;;;;;;17.77;9.37;;;25.10;85.20;;;25.83;57.17;94951.72;4959220;28;20467;-66
2023/07/14 00:48:03;;;;;;;13.60;8.20;;;25.10;85.20;;;25.83;56.83;94943.66;4957768;28;20447;-67
2023/07/14 00:50:34;;;;;;;18.63;9.27;;;25.10;84.60;;;25.84;56.77;94931.78;4957444;28;20865;-67
2023/07/14 00:53:05;;;;;;;22.27;8.20;;;25.10;84.50;;;25.81;56.57;94940.34;4962781;28;20451;-59
2023/07/14 00:55:42;;;;;;;9.17;8.27;;;25.10;84.50;;;25.75;56.76;94951.00;4959303;28;21022;-65
2023/07/14 00:58:21;;;;;;;13.70;7.03;;;25.10;84.50;;;25.71;56.84;94955.22;4958780;28;20850;-57
2023/07/14 01:01:08;;;;;;;12.83;7.30;;;25.10;84.60;;;25.66;57.11;94957.78;4959711;28;20532;-58
2023/07/14 01:03:39;;;;;;;12.27;7.20;;;25.00;84.80;;;25.59;56.66;94952.53;4958975;28;20513;-65
2023/07/14 01:06:07;;;;;;;15.00;6.80;;;24.90;84.10;;;25.52;56.43;94959.88;4960644;28;20495;-58
2023/07/14 01:08:34;;;;;;;12.27;7.40;;;24.90;84.20;;;25.48;56.50;94969.47;4963321;28;20459;-66
2023/07/14 01:11:03;;;;;;;24.90;8.53;;;24.80;84.10;;;25.42;56.19;94978.47;4961062;28;20483;-59
2023/07/14 01:13:30;;;;;;;9.17;7.17;;;24.80;84.20;;;25.38;56.57;94971.91;4960441;28;21380;-58
2023/07/14 01:15:58;;;;;;;8.07;7.30;;;24.70;84.40;;;25.36;56.71;94968.59;4961441;28;20495;-58
2023/07/14 01:18:25;;;;;;;16.87;8.43;;;24.70;84.70;;;25.24;56.50;94960.50;4967543;28;20462;-59
2023/07/14 01:20:52;;;;;;;18.83;8.13;;;24.60;84.30;;;25.11;56.16;94952.59;4967051;28;20850;-59
2023/07/14 01:23:44;;;;;;;10.27;7.80;;;24.50;84.30;;;24.95;57.15;94948.69;4966836;28;20520;-58
2023/07/14 01:26:27;;;;;;;9.20;7.43;;;24.40;84.50;;;24.81;57.33;94948.84;4964559;28;20469;-66
2023/07/14 01:28:56;;;;;;;14.60;8.20;;;24.20;85.10;;;24.74;57.36;94936.53;4964247;28;21370;-59
2023/07/14 01:31:24;;;;;;;12.23;7.20;;;24.10;85.10;;;24.65;57.36;94936.03;4966332;28;20519;-59
2023/07/14 01:33:53;;;;;;;16.17;7.83;;;24.00;85.90;;;24.58;58.03;94930.72;4963263;28;20829;-58
2023/07/14 01:36:21;;;;;;;16.27;7.83;;;24.00;86.20;;;24.52;57.67;94934.28;4966177;28;20503;-65
2023/07/14 01:38:48;;;;;;;20.70;8.00;;;23.90;86.50;;;24.49;58.05;94934.72;4966461;28;20997;-58
2023/07/14 01:41:16;;;;;;;12.00;7.80;;;23.80;87.00;;;24.49;58.08;94934.72;4963003;28;20474;-66
2023/07/14 01:43:43;;;;;;;11.00;8.30;;;23.80;87.00;;;24.48;58.83;94935.78;4967239;28;20529;-58
2023/07/14 01:46:16;;;;;;;12.80;6.43;;;23.80;87.70;;;24.50;59.26;94926.44;4966712;28;20493;-58
2023/07/14 01:49:01;;;;;;;9.93;8.23;;;23.90;88.20;;;24.54;59.34;94929.50;4966879;28;20478;-59
2023/07/14 01:51:30;;;;;;;16.67;7.93;;;23.90;88.60;;;24.55;59.36;94931.13;4963510;28;20447;-66
2023/07/14 01:54:03;;;;;;;12.20;7.50;;;23.90;88.60;;;24.60;59.24;94960.06;4966485;28;20551;-66
2023/07/14 01:56:30;;;;;;;8.90;7.73;;;23.90;88.70;;;24.64;59.23;94959.41;4962609;28;20467;-66
2023/07/14 01:59:03;;;;;;;17.73;7.90;;;24.00;89.10;;;24.70;59.06;94963.06;4966602;28;20462;-58
2023/07/14 02:01:32;;;;;;;15.03;7.30;;;24.00;89.10;;;24.74;58.94;94960.72;4966516;28;20495;-65
2023/07/14 02:04:00;;;;;;;10.97;8.13;;;24.00;88.90;;;24.77;58.41;94962.97;4966035;28;20466;-59
2023/07/14 02:06:27;;;;;;;15.17;7.30;;;24.10;88.80;;;24.79;59.11;94980.53;4966002;28;20459;-59
2023/07/14 02:08:55;;;;;;;15.33;8.83;;;24.10;88.80;;;24.85;58.41;94976.13;4965895;28;21054;-59
2023/07/14 02:11:23;;;;;;;10.93;7.53;;;24.10;89.00;;;24.88;58.83;94981.88;4965585;28;20463;-67
2023/07/14 02:13:51;;;;;;;14.60;8.60;;;24.20;89.00;;;24.91;58.23;94991.38;4966084;28;21272;-60
2023/07/14 02:16:19;;;;;;;16.40;9.00;;;24.20;88.80;;;24.93;58.17;94997.34;4964686;28;20491;-66
2023/07/14 02:18:48;;;;;;;13.83;8.50;;;24.30;88.80;;;24.97;58.74;95005.78;4966035;28;20454;-58
2023/07/14 02:21:20;;;;;;;13.87;8.53;;;24.30;88.70;;;25.00;58.73;95014.22;4965905;28;20479;-57
2023/07/14 02:23:47;;;;;;;13.07;9.33;;;24.30;88.70;;;25.01;58.02;95021.25;4966069;28;20447;-59
2023/07/14 02:26:22;;;;;;;10.90;7.80;;;24.30;88.40;;;25.03;58.44;95029.09;4966136;28;20483;-59
2023/07/14 02:28:49;;;;;;;14.97;8.90;;;24.30;88.30;;;25.05;58.20;95025.13;4965352;28;20561;-65
2023/07/14 02:31:21;;;;;;;13.93;7.60;;;24.40;88.40;;;25.11;58.23;95025.25;4965739;28;20501;-58
2023/07/14 02:33:50;;;;;;;21.33;8.60;;;24.40;88.10;;;25.14;57.62;95027.50;4965125;28;20458;-59
2023/07/14 02:36:23;;;;;;;16.83;8.10;;;24.50;87.90;;;25.16;57.36;95028.94;4965203;28;20555;-57
2023/07/14 02:38:55;;;;;;;10.97;7.07;;;24.50;87.70;;;25.20;57.33;95037.38;4965456;28;20842;-67
2023/07/14 02:41:24;;;;;;;16.73;7.70;;;24.50;87.50;;;25.24;57.44;95034.00;4965308;28;20472;-67
2023/07/14 02:43:55;;;;;;;13.53;6.87;;;24.50;87.40;;;25.29;57.25;95032.53;4965283;28;20463;-67
2023/07/14 02:46:24;;;;;;;16.20;7.27;;;24.60;87.20;;;25.34;56.43;95041.53;4965139;28;21088;-67
2023/07/14 02:48:53;;;;;;;16.47;7.60;;;24.60;86.80;;;25.39;56.80;95043.56;4963046;28;20451;-66
2023/07/14 02:51:20;;;;;;;9.23;6.37;;;24.70;86.50;;;25.46;55.97;95038.91;4965626;28;20482;-67
2023/07/14 02:53:47;;;;;;;8.93;6.60;;;24.80;86.20;;;25.55;55.89;95042.09;4965095;28;20451;-59
2023/07/14 02:56:15;;;;;;;12.50;7.13;;;24.80;86.50;;;25.63;55.98;95028.31;4965062;28;20558;-67
2023/07/14 02:58:47;;;;;;;13.43;7.40;;;24.90;85.40;;;25.70;55.54;95037.13;4965804;28;20470;-66
2023/07/14 03:01:14;;;;;;;14.93;6.70;;;25.00;85.10;;;25.80;55.45;95043.81;4959801;28;20459;-58
2023/07/14 03:03:42;;;;;;;9.63;7.30;;;25.10;84.40;;;25.88;54.86;95046.16;4965380;28;20504;-66
2023/07/14 03:06:12;;;;;;;10.60;6.70;;;25.20;83.90;;;25.96;53.97;95051.22;4965530;28;20483;-59
2023/07/14 03:08:39;;;;;;;18.33;6.63;;;25.30;83.10;;;26.05;54.05;95046.34;4964982;28;20446;-59
2023/07/14 03:11:06;;;;;;;17.50;8.03;;;25.30;82.10;;;26.13;53.35;95054.06;4964747;28;20475;-60
2023/07/14 03:13:35;;;;;;;15.10;6.73;;;25.40;81.60;;;26.21;53.00;95053.75;4964724;28;20459;-66
2023/07/14 03:16:03;;;;;;;16.60;7.67;;;25.50;80.60;;;26.29;52.16;95058.78;4960929;28;20492;-67
2023/07/14 03:18:30;;;;;;;14.70;7.87;;;25.60;79.90;;;26.38;51.62;95063.84;4965109;28;20830;-66
2023/07/14 03:20:57;;;;;;;10.83;7.87;;;25.70;79.10;;;26.45;51.67;95062.66;4961583;28;20483;-65
2023/07/14 03:23:26;;;;;;;17.03;6.17;;;25.70;79.10;;;26.53;51.01;95064.19;4965035;28;20455;-66
2023/07/14 03:25:58;;;;;;;13.00;7.80;;;25.80;77.70;;;26.61;50.22;95068.41;4965405;28;20478;-62
2023/07/14 03:28:25;;;;;;;18.57;7.70;;;25.90;77.10;;;26.69;50.49;95070.75;4964881;28;20528;-64
2023/07/14 03:30:53;;;;;;;32.37;14.53;;;26.00;76.40;;;26.76;49.61;95067.97;4966385;28;20471;-66
2023/07/14 03:33:20;;;;;;;11.30;8.80;;;26.00;75.70;;;26.83;49.27;95074.03;4968145;28;20943;-58
2023/07/14 03:35:47;;;;;;;8.97;7.30;;;26.10;75.00;;;26.91;48.76;95073.69;4961246;28;20604;-61
2023/07/14 03:38:16;;;;;;;17.80;8.33;;;26.20;74.30;;;26.97;48.57;95064.66;4960641;28;20462;-59
2023/07/14 03:40:45;;;;;;;12.80;7.60;;;26.30;73.40;;;27.02;47.94;95072.03;4956819;28;20917;-60
2023/07/14 03:43:12;;;;;;;16.53;9.33;;;26.30;72.90;;;27.09;47.52;95074.59;4964468;28;20485;-61
2023/07/14 03:45:39;;;;;;;23.40;12.00;;;26.40;72.00;;;27.13;47.28;95067.66;4964617;28;20475;-60
2023/07/14 03:48:07;;;;;;;16.87;8.47;;;26.40;71.50;;;27.17;46.65;95076.91;4959191;28;20905;-59
2023/07/14 03:50:35;;;;;;;17.77;9.30;;;26.40;70.90;;;27.20;46.74;95081.81;4964179;28;20475;-60
2023/07/14 03:53:02;;;;;;;12.63;8.70;;;26.50;70.60;;;27.23;46.50;95085.94;4964370;28;21029;-68
2023/07/14 03:55:31;;;;;;;10.37;8.77;;;26.50;70.20;;;27.25;46.22;95097.31;4964477;28;20499;-59
2023/07/14 03:58:00;;;;;;;13.47;7.63;;;26.50;70.30;;;27.26;46.71;95099.78;4964476;28;20455;-60
2023/07/14 04:00:28;;;;;;;16.40;8.40;;;26.50;70.90;;;27.28;46.77;95102.25;4964388;28;20592;-67
2023/07/14 04:02:56;;;;;;;13.50;9.60;;;26.60;70.80;;;27.28;46.30;95110.34;4963205;28;20455;-67
2023/07/14 04:05:23;;;;;;;14.40;8.37;;;26.60;70.30;;;27.27;46.09;95109.53;4964381;28;20826;-59
2023/07/14 04:07:50;;;;;;;13.27;8.50;;;26.60;70.00;;;27.28;46.54;95118.44;4964107;28;20509;-60
2023/07/14 04:10:18;;;;;;;12.33;8.70;;;26.60;69.90;;;27.28;46.16;95121.16;4964159;28;20561;-67
2023/07/14 04:12:47;;;;;;;17.50;9.67;;;26.60;69.90;;;27.27;46.26;95133.03;4964266;28;20542;-67
2023/07/14 04:15:16;;;;;;;19.67;10.23;;;26.60;69.90;;;27.27;46.34;95141.13;4963373;28;20816;-67
2023/07/14 04:17:43;;;;;;;13.43;9.50;;;26.60;70.20;;;27.26;46.38;95143.00;4963250;28;20447;-68
2023/07/14 04:20:12;;;;;;;16.50;9.03;;;26.60;70.20;;;27.26;46.57;95153.78;4963915;28;20493;-60
2023/07/14 04:22:39;;;;;;;15.67;8.77;;;26.60;70.60;;;27.26;46.81;95158.38;4961021;28;20452;-65
2023/07/14 04:25:09;;;;;;;13.00;8.50;;;26.50;70.90;;;27.26;47.14;95163.78;4961794;28;20474;-66
2023/07/14 04:27:37;;;;;;;18.40;9.20;;;26.50;71.50;;;27.27;47.10;95149.25;4960152;28;20508;-60
2023/07/14 04:30:07;;;;;;;14.73;8.70;;;26.60;71.40;;;27.27;47.23;95163.56;4963549;28;20554;-66
2023/07/14 04:32:36;;;;;;;13.20;8.90;;;26.60;71.60;;;27.28;47.68;95188.66;4959502;28;20443;-67
2023/07/14 04:35:06;;;;;;;11.87;8.77;;;26.60;72.00;;;27.29;47.75;95190.31;4961880;28;20548;-60
2023/07/14 04:37:33;;;;;;;16.37;9.00;;;26.60;72.40;;;27.30;47.84;95186.56;4960665;28;20455;-67
2023/07/14 04:40:01;;;;;;;32.90;10.80;;;26.60;72.70;;;27.27;48.36;95184.34;4966022;28;20478;-68
2023/07/14 04:42:28;;;;;;;26.47;10.17;;;26.60;73.20;;;27.24;48.57;95198.31;4967625;28;20455;-66
2023/07/14 04:44:55;;;;;;;14.40;9.23;;;26.50;73.40;;;27.19;49.27;95197.16;4962844;28;20475;-67
2023/07/14 04:47:23;;;;;;;24.17;8.87;;;26.50;74.30;;;27.18;49.24;95202.78;4965814;28;20451;-66
2023/07/14 04:49:51;;;;;;;16.30;9.40;;;26.50;74.80;;;27.17;49.60;95209.22;4966472;28;20236;-62
2023/07/14 04:52:19;;;;;;;17.13;9.83;;;26.50;75.40;;;27.16;49.57;95203.00;4966915;28;20466;-60
2023/07/14 04:54:46;;;;;;;20.03;10.03;;;26.50;75.60;;;27.17;50.10;95203.81;4966040;28;20543;-67
2023/07/14 04:57:13;;;;;;;24.33;9.30;;;26.50;76.00;;;27.14;50.25;95199.75;4966745;28;21023;-61
2023/07/14 04:59:41;;;;;;;12.93;9.50;;;26.50;76.10;;;27.16;50.41;95208.41;4966772;28;20471;-67
2023/07/14 05:02:09;;;;;;;14.40;10.00;;;26.40;76.40;;;27.19;50.58;95207.13;4965688;28;20554;-68
2023/07/14 05:04:42;;;;;;;15.80;8.93;;;26.50;76.60;;;27.22;50.66;95209.38;4967074;28;20489;-60
2023/07/14 05:07:11;;;;;;;18.33;9.00;;;26.50;77.10;;;27.22;50.96;95209.38;4967081;28;20570;-60
2023/07/14 05:09:38;;;;;;;16.47;9.37;;;26.50;77.30;;;27.27;50.85;95224.84;4966497;28;20554;-60
2023/07/14 05:12:07;;;;;;;40.03;14.80;;;26.60;77.20;;;27.31;50.98;95220.63;4966163;28;20450;-66
2023/07/14 05:14:35;;;;;;;22.33;11.00;;;26.60;77.60;;;27.35;51.13;95217.22;4965471;28;20479;-59
2023/07/14 05:17:02;;;;;;;18.20;9.03;;;26.60;77.70;;;27.39;50.95;95216.75;4964461;28;20487;-60
2023/07/14 05:19:29;;;;;;;25.57;9.20;;;26.70;77.70;;;27.45;51.28;95221.22;4966236;28;20535;-60
2023/07/14 05:21:57;;;;;;;19.70;9.30;;;26.70;77.80;;;27.50;50.92;95222.16;4962803;28;20450;-65
2023/07/14 05:24:25;;;;;;;15.03;9.93;;;26.80;77.70;;;27.55;51.19;95235.75;4966352;28;20474;-67
2023/07/14 05:26:53;;;;;;;16.40;9.67;;;26.80;77.50;;;27.63;50.46;95233.75;4966415;28;20207;-67
2023/07/14 05:29:20;;;;;;;21.23;9.80;;;26.90;76.80;;;27.73;50.35;95239.38;4966740;28;20515;-59
2023/07/14 05:31:47;;;;;;;18.13;8.70;;;27.00;76.50;;;27.86;50.11;95231.00;4965443;28;20530;-60
2023/07/14 05:34:15;;;;;;;19.60;10.03;;;27.10;76.60;;;28.00;49.99;95226.16;4966810;28;20900;-61
2023/07/14 05:36:42;;;;;;;22.17;8.63;;;27.20;76.50;;;28.14;49.80;95229.41;4966454;28;20567;-59
2023/07/14 05:39:10;;;;;;;14.43;8.70;;;27.30;76.30;;;28.24;50.03;95228.75;4966798;28;20824;-61
2023/07/14 05:41:39;;;;;;;12.10;7.30;;;27.50;76.70;;;28.31;49.95;95228.63;4966595;28;20458;-67
2023/07/14 05:44:06;;;;;;;14.27;8.80;;;27.60;76.50;;;28.41;50.10;95226.09;4966898;28;20447;-58
2023/07/14 05:46:33;;;;;;;20.97;8.17;;;27.60;76.70;;;28.52;49.70;95230.66;4966090;28;20816;-60
2023/07/14 05:49:01;;;;;;;13.87;7.90;;;27.70;76.70;;;28.61;49.87;95223.81;4963045;28;20456;-65
2023/07/14 05:51:28;;;;;;;12.30;7.30;;;27.80;76.90;;;28.78;49.91;95231.09;4966398;28;20207;-68
2023/07/14 05:53:55;;;;;;;20.60;7.27;;;27.90;78.10;;;28.96;50.70;95232.75;4966284;28;20207;-60
2023/07/14 05:56:23;;;;;;;23.47;7.57;;;28.10;77.40;;;29.13;50.36;95238.97;4965847;28;20296;-59
2023/07/14 05:58:51;;;;;;;15.97;8.53;;;28.30;77.80;;;29.29;50.07;95234.63;4966683;28;20290;-60
2023/07/14 06:01:19;;;;;;;20.00;8.70;;;28.50;76.60;;;29.47;49.17;95230.81;4965844;28;20713;-66
2023/07/14 06:03:46;;;;;;;13.83;6.97;;;28.60;76.40;;;29.61;49.48;95233.97;4965013;28;20204;-67
2023/07/14 06:06:13;;;;;;;16.90;8.40;;;28.80;75.90;;;29.77;49.21;95228.75;4966219;28;20231;-67
2023/07/14 06:08:42;;;;;;;18.80;7.50;;;28.90;75.70;;;29.91;49.40;95224.63;4966588;28;20204;-60
2023/07/14 06:11:09;;;;;;;14.43;7.70;;;29.10;75.40;;;30.07;49.25;95225.63;4966161;28;20239;-59
2023/07/14 06:13:36;;;;;;;17.43;7.47;;;29.20;75.30;;;30.23;48.22;95231.22;4966345;28;20679;-60
2023/07/14 06:16:05;;;;;;;10.70;7.30;;;29.40;74.80;;;30.30;48.21;95220.97;4962701;28;20701;-68
2023/07/14 06:18:32;;;;;;;16.90;7.23;;;29.50;74.30;;;30.39;47.57;95214.84;4965845;28;20200;-60
2023/07/14 06:21:00;;;;;;;18.00;7.50;;;29.50;74.70;;;30.52;48.41;95213.63;4962408;28;20289;-61
2023/07/14 06:23:27;;;;;;;16.23;7.20;;;29.70;74.10;;;30.69;48.11;95226.25;4965931;28;20207;-66
2023/07/14 06:25:57;;;;;;;18.67;7.47;;;29.80;73.90;;;30.79;47.50;95228.25;4966090;28;20678;-61
2023/07/14 06:28:25;;;;;;;13.73;8.23;;;29.90;73.50;;;30.86;46.97;95224.25;4965867;28;20523;-59
2023/07/14 06:30:57;;;;;;;20.20;9.80;;;30.00;73.10;;;30.96;47.43;95223.50;4958642;28;20250;-60
2023/07/14 06:33:26;;;;;;;13.07;8.93;;;30.10;72.80;;;31.07;46.56;95225.22;4960891;28;20215;-60
2023/07/14 06:35:55;;;;;;;12.90;7.90;;;30.20;72.50;;;31.12;47.45;95229.09;4960581;28;20240;-59
2023/07/14 06:38:22;;;;;;;13.13;7.80;;;30.30;72.60;;;31.17;46.99;95223.66;4965637;28;20318;-61
2023/07/14 06:40:56;;;;;;;15.93;7.40;;;30.40;72.30;;;31.25;46.25;95223.19;4960209;28;20224;-60
2023/07/14 06:43:24;;;;;;;18.92;8.27;;;30.50;72.00;;;31.34;46.18;95234.38;4958260;28;20286;-61
2023/07/14 06:45:51;;;;;;;13.88;7.90;;;30.50;71.60;;;31.38;46.08;95230.88;4961665;28;20254;-61
2023/07/14 06:48:18;;;;;;;19.90;7.47;;;30.60;71.40;;;31.48;46.21;95229.31;4964143;28;20576;-60
2023/07/14 06:50:47;;;;;;;10.85;7.63;;;30.70;71.20;;;31.57;46.04;95235.91;4964555;28;20242;-60
2023/07/14 06:53:14;;;;;;;12.45;7.50;;;30.80;70.90;;;31.62;45.56;95231.31;4960348;28;20290;-59
2023/07/14 06:55:43;;;;;;;21.00;7.95;;;30.80;70.60;;;31.66;45.27;95233.53;4961399;28;20239;-67
2023/07/14 06:58:10;;;;;;;16.08;8.40;;;30.90;70.50;;;31.74;45.47;95233.81;4959492;28;20231;-67
2023/07/14 07:00:37;;;;;;;16.27;8.63;;;30.90;70.10;;;31.88;45.27;95233.34;4962020;28;20235;-59
2023/07/14 07:03:05;;;;;;;14.35;8.93;;;31.00;70.10;;;32.01;45.45;95227.41;4960213;28;20207;-60
2023/07/14 07:05:37;;;;;;;27.70;10.88;;;31.10;70.10;;;32.15;45.04;95230.50;4957788;28;20727;-67
2023/07/14 07:08:06;;;;;;;13.70;8.65;;;31.30;70.30;;;32.22;44.86;95235.66;4961965;28;20303;-69
2023/07/14 07:10:34;;;;;;;14.68;8.77;;;31.30;69.40;;;32.18;44.82;95240.84;4963462;28;20232;-67
2023/07/14 07:13:02;;;;;;;18.25;9.10;;;31.40;68.90;;;32.09;44.94;95235.09;4958531;28;20684;-60
2023/07/14 07:15:29;;;;;;;17.90;8.00;;;31.40;68.80;;;32.02;44.86;95226.31;4961587;28;20235;-60
2023/07/14 07:17:56;;;;;;;20.77;8.32;;;31.30;68.90;;;32.05;45.27;95223.06;4964866;28;20236;-60
2023/07/14 07:20:23;;;;;;;17.45;7.57;;;31.30;69.30;;;32.18;45.14;95227.22;4962046;28;20269;-67
2023/07/14 07:22:51;;;;;;;19.50;8.07;;;31.40;69.30;;;32.28;44.99;95221.00;4963209;28;20207;-65
2023/07/14 07:25:20;;;;;;;18.92;9.82;;;31.50;69.20;;;32.38;44.61;95223.75;4970034;28;20228;-68
2023/07/14 07:27:48;;;;;;;18.50;9.38;;;31.50;68.70;;;32.48;44.77;95228.38;4966466;28;20424;-60
2023/07/14 07:30:15;;;;;;;19.63;9.05;;;31.60;68.80;;;32.63;44.52;95228.41;4964638;28;20708;-66
2023/07/14 07:32:43;;;;;;;14.30;8.43;;;31.80;68.70;;;32.68;44.39;95219.44;4964246;28;20207;-68
2023/07/14 07:35:12;;;;;;;12.35;8.88;;;31.80;68.20;;;32.71;44.13;95218.91;4961398;28;20391;-67
2023/07/14 07:37:39;;;;;;;21.30;9.70;;;31.90;68.20;;;32.79;44.46;95223.81;4964814;28;20243;-66
2023/07/14 07:40:09;;;;;;;23.40;7.88;;;31.90;68.00;;;32.95;43.93;95223.81;4965546;28;20231;-60
2023/07/14 07:42:38;;;;;;;9.48;8.15;;;32.00;68.10;;;33.16;43.77;95219.97;4962053;28;20821;-61
2023/07/14 07:45:06;;;;;;;12.50;8.15;;;32.20;67.80;;;33.33;43.38;95214.25;4964520;28;20313;-60
2023/07/14 07:47:34;;;;;;;8.00;6.70;;;32.40;67.50;;;33.55;43.59;95207.66;4963974;28;20196;-68
2023/07/14 07:50:01;;;;;;;17.40;7.82;;;32.60;67.20;;;33.81;43.42;95216.63;4961808;28;20318;-60
2023/07/14 07:52:28;;;;;;;16.77;8.70;;;32.90;67.00;;;34.10;42.70;95210.50;4965420;28;20203;-62
2023/07/14 07:54:55;;;;;;;14.60;7.85;;;33.10;66.70;;;34.38;42.83;95205.44;4964986;28;20251;-59
2023/07/14 07:57:23;;;;;;;29.25;8.82;;;33.40;66.10;;;34.61;41.77;95210.22;4962043;28;20236;-68
2023/07/14 07:59:51;;;;;;;25.65;8.55;;;33.60;65.20;;;34.80;40.78;95206.81;4966525;28;20231;-67
2023/07/14 08:02:19;;;;;;;18.48;7.45;;;33.80;64.30;;;34.93;40.99;95200.69;4966907;28;20218;-61
2023/07/14 08:04:49;;;;;;;21.05;8.07;;;34.00;63.20;;;34.87;40.85;95196.34;4964248;28;20644;-60
2023/07/14 08:07:16;;;;;;;10.10;8.30;;;34.00;62.60;;;34.82;41.24;95197.22;4964509;28;20214;-68
2023/07/14 08:09:43;;;;;;;24.67;8.15;;;33.90;62.80;;;34.95;40.69;95192.19;4964522;28;20220;-60
2023/07/14 08:12:11;;;;;;;13.23;8.65;;;34.00;62.70;;;35.13;40.36;95196.16;4964370;28;20207;-62
2023/07/14 08:14:52;;;;;;;18.10;7.50;;;34.20;62.60;;;35.25;39.76;95185.63;4963295;28;20235;-60
2023/07/14 08:17:23;;;;;;;16.70;7.40;;;34.40;61.70;;;35.28;40.29;95189.75;4960312;28;20281;-60
2023/07/14 08:19:51;;;;;;;13.27;7.90;;;34.40;61.50;;;35.27;39.56;95186.19;4964533;28;20216;-59
2023/07/14 08:22:18;;;;;;;16.63;8.05;;;34.40;61.40;;;35.26;40.00;95176.38;4964655;28;20290;-67
2023/07/14 08:24:45;;;;;;;14.43;7.82;;;34.40;61.70;;;35.43;40.47;95180.53;4964484;28;20235;-60
2023/07/14 08:27:14;;;;;;;24.58;7.78;;;34.50;61.80;;;35.67;39.78;95184.09;4960802;28;20266;-67
2023/07/14 08:29:41;;;;;;;21.98;7.88;;;34.70;61.50;;;35.92;39.74;95179.44;4964969;28;20690;-68
2023/07/14 08:32:10;;;;;;;16.00;8.45;;;34.90;60.90;;;36.19;39.18;95176.09;4963635;28;20207;-68
2023/07/14 08:34:37;;;;;;;12.80;7.53;;;35.20;60.40;;;36.46;38.85;95182.03;4964375;28;20716;-62
2023/07/14 08:37:05;;;;;;;11.30;7.32;;;35.50;59.80;;;36.55;38.25;95169.31;4964405;28;20242;-70
2023/07/14 08:39:33;;;;;;;12.52;6.82;;;35.60;59.10;;;36.59;38.31;95173.88;4961261;28;20251;-61
2023/07/14 08:42:06;;;;;;;16.30;7.93;;;35.70;58.60;;;36.63;38.09;95168.63;4965059;28;20223;-62
2023/07/14 08:44:48;;;;;;;13.77;8.18;;;35.80;58.40;;;36.56;37.70;95174.47;4961073;28;20231;-62
2023/07/14 08:47:20;;;;;;;15.65;7.82;;;35.80;58.10;;;36.58;37.18;95168.69;4957258;28;20188;-59
2023/07/14 08:49:50;;;;;;;19.70;8.65;;;35.70;57.70;;;36.72;37.70;95172.31;4963649;28;20634;-60
2023/07/14 08:52:23;;;;;;;18.95;8.55;;;35.80;58.30;;;36.97;37.36;95173.03;4956818;28;20676;-67
2023/07/14 08:54:59;;;;;;;32.40;8.85;;;36.00;57.70;;;37.20;37.21;95170.41;4957574;28;20239;-66
2023/07/14 08:57:27;;;;;;;26.63;8.00;;;36.20;57.50;;;37.40;37.11;95166.50;4956227;28;20226;-69
2023/07/14 08:59:56;;;;;;;19.27;8.25;;;36.40;57.20;;;37.63;36.69;95175.66;4961919;28;20224;-62
2023/07/14 09:02:34;;;;;;;15.73;7.30;;;36.60;56.90;;;37.85;36.32;95164.81;4960033;28;20199;-62
2023/07/14 09:05:03;;;;;;;14.95;8.30;;;36.90;56.80;;;37.94;36.59;95164.91;4959459;28;20338;-61
2023/07/14 09:07:31;;;;;;;13.13;7.82;;;37.00;56.10;;;37.96;36.26;95154.44;4960525;28;20204;-68
2023/07/14 09:09:58;;;;;;;19.38;7.45;;;37.10;56.00;;;38.07;35.64;95155.03;4965500;28;20243;-69
2023/07/14 09:12:28;;;;;;;15.60;7.55;;;37.10;55.90;;;38.23;35.80;95158.25;4963514;28;20639;-68
2023/07/14 09:14:58;;;;;;;13.88;7.57;;;37.20;55.70;;;38.38;36.06;95146.13;4959397;28;20231;-69
2023/07/14 09:17:42;;;;;;;10.63;7.43;;;37.40;55.70;;;38.52;35.85;95146.06;4960171;28;20325;-61
2023/07/14 09:20:29;;;;;;;21.08;8.18;;;37.60;55.60;;;38.67;35.83;95144.88;4963413;28;20232;-60
2023/07/14 09:23:04;;;;;;;15.50;8.93;;;37.70;55.50;;;38.74;34.82;95139.78;4963195;28;20204;-68
2023/07/14 09:25:37;;;;;;;15.73;7.97;;;37.80;54.90;;;38.81;35.32;95140.16;4964925;28;20235;-60
2023/07/14 09:28:05;;;;;;;8.43;6.95;;;37.90;55.10;;;38.91;35.36;95134.38;4963293;28;20207;-61
2023/07/14 09:30:33;;;;;;;22.75;8.25;;;38.00;55.10;;;39.03;34.99;95138.50;4966663;28;20223;-62
2023/07/14 09:33:04;;;;;;;17.25;8.07;;;38.10;54.70;;;39.06;34.58;95132.38;4966194;28;20573;-62
2023/07/14 09:35:31;;;;;;;15.23;7.63;;;38.10;54.30;;;39.07;35.05;95131.22;4963872;28;20621;-68
2023/07/14 09:38:03;;;;;;;11.07;7.57;;;38.10;53.90;;;39.02;34.55;95136.88;4966883;28;20311;-68
2023/07/14 09:40:32;;;;;;;20.27;7.68;;;38.10;53.40;;;38.84;34.43;95131.28;4967141;28;20232;-69
2023/07/14 09:43:01;;;;;;;19.08;7.63;;;38.00;53.10;;;38.63;34.45;95130.16;4966937;28;20200;-69
2023/07/14 09:45:30;;;;;;;20.52;8.18;;;37.80;53.10;;;38.41;34.54;95118.00;4968924;28;20759;-61
2023/07/14 09:48:00;;;;;;;12.48;8.13;;;37.60;53.20;;;38.35;34.43;95124.75;4967124;28;20685;-69
2023/07/14 09:50:29;;;;;;;13.38;8.25;;;37.40;53.20;;;38.37;35.04;95117.00;4966940;28;20227;-67
2023/07/14 09:52:58;;;;;;;10.15;7.53;;;37.40;53.60;;;38.39;34.67;95117.50;4967104;28;20223;-67
2023/07/14 09:55:26;;;;;;;13.18;8.32;;;37.40;53.70;;;38.46;35.01;95117.88;4962376;28;20247;-68
2023/07/14 09:57:55;;;;;;;10.32;7.05;;;37.50;53.90;;;38.61;34.41;95113.94;4966289;28;20333;-69
2023/07/14 10:00:25;;;;;;;13.93;8.85;;;37.60;53.60;;;38.75;34.52;95111.16;4966306;28;20232;-69
2023/07/14 10:03:04;;;;;;;22.17;8.38;;;37.80;53.10;;;38.85;34.04;95108.13;4966324;28;20200;-69
2023/07/14 10:05:42;;;;;;;13.48;8.43;;;37.80;52.60;;;38.93;33.68;95109.31;4967558;28;20325;-70
2023/07/14 10:08:26;;;;;;;17.35;8.70;;;37.90;52.20;;;38.99;32.86;95108.03;4966286;28;20199;-61
2023/07/14 10:10:53;;;;;;;11.40;7.40;;;38.10;51.40;;;38.92;32.52;95102.19;4965812;28;20228;-69
2023/07/14 10:13:24;;;;;;;13.82;8.27;;;38.00;50.70;;;38.83;33.23;95099.41;4966355;28;20262;-61
2023/07/14 10:15:57;;;;;;;20.30;7.82;;;37.90;51.00;;;38.83;32.95;95093.09;4965738;28;20633;-68
2023/07/14 10:18:27;;;;;;;17.83;7.82;;;37.90;51.10;;;38.83;33.20;95087.59;4965982;28;20215;-68
2023/07/14 10:21:06;;;;;;;13.65;8.95;;;37.90;51.20;;;38.87;32.83;95094.91;4965875;28;20228;-61